aviador You're here:

KBIL Decoded Metar

BILLINGS in MT, USA
Report Time2017-06-25 12:53:00
UTC Time2017-06-25 13:49:05
Flight Rules vfr VFR
Wind220° at 06 kt
W.Decomp.*RWY 25: 4.3 kt HW 4.2 kt LCW
RWY 28: 1.7 kt HW 5.8 kt LCW
W.Rank220° ranks 3
Current wind is below 220° avg. (8.8)
Visibility9999 m
Phenomena:N/A
Clouds:Few 120 Hf
Expected CloudBase > 2,800 ft AGL from Temp-Dew spread
CeilingNone
Temp11°C (ISA +3)
Dew Point04°C (62% RH)
AAT7.5°C
QNH1027 hPa
Density Alt3,596 ft
Elevation3,579 ft
Report Wrong Elevation
Raw Report
METAR KBIL 251253Z 22006KT 10SM FEW120 11/04 A3033 RMK AO2 SLP253 T01110044=

Extra information for KBIL:More info

Metar Taf Metar & Taf Last 4 Metars F.Rules Stats Wind Profile Meteogram Temp Stats Airport Information Weather charts Add Link Nearby VenuesMetar ALERT Operation Metar Decoded Social comments

AIRNAV info for KBIL